Time;durP1;ratioP1;P1;durP2;ratioP2;P2;SDS_P1;SDS_P2;PMS_P1;PMS_P2;Temp;Humidity;BMP_temperature;BMP_pressure;BME280_temperature;BME280_humidity;BME280_pressure;Samples;Min_cycle;Max_cycle;Signal;HPM_P1;HPM_P2
2022/03/22 00:03:33;;;;;;;34.3;48.8;;;;;;;-0.6;55;100820;;;;
2022/03/22 00:14:34;;;;;;;35.5;47.8;;;;;;;-0.8;55.5;100820;;;;
2022/03/22 00:24:34;;;;;;;35.5;47.8;;;;;;;-0.9;56.4;100820;;;;
2022/03/22 00:35:36;;;;;;;35.5;47.8;;;;;;;-1;57;100820;;;;
2022/03/22 00:46:34;;;;;;;40.1;60.4;;;;;;;-1.1;57.6;100820;;;;
2022/03/22 00:57:34;;;;;;;40.1;60.4;;;;;;;-1.2;57.9;100820;;;;
2022/03/22 01:08:34;;;;;;;40.1;60.4;;;;;;;-1.3;57.9;100810;;;;
2022/03/22 01:18:34;;;;;;;35.7;53.3;;;;;;;-1.3;57.9;100810;;;;
2022/03/22 01:28:34;;;;;;;35.7;53.3;;;;;;;-1.5;58.7;100810;;;;
2022/03/22 01:38:34;;;;;;;35.7;53.3;;;;;;;-1.6;60.3;100800;;;;
2022/03/22 01:49:34;;;;;;;36.6;53.7;;;;;;;-1.6;59.8;100800;;;;
2022/03/22 01:59:33;;;;;;;36.6;53.7;;;;;;;-1.6;60.4;100800;;;;
2022/03/22 02:09:34;;;;;;;30.6;48.9;;;;;;;-1.7;60.3;100800;;;;
2022/03/22 02:19:34;;;;;;;30.6;48.9;;;;;;;-1.9;59.6;100790;;;;
2022/03/22 02:30:34;;;;;;;30.6;48.9;;;;;;;-2;60.1;100790;;;;
2022/03/22 02:40:34;;;;;;;24;35.4;;;;;;;-2;60;100790;;;;
2022/03/22 02:50:34;;;;;;;24;35.4;;;;;;;-2.2;60.1;100800;;;;
2022/03/22 03:01:34;;;;;;;24;35.4;;;;;;;-2.3;62.2;100810;;;;
2022/03/22 03:12:34;;;;;;;24.7;39.7;;;;;;;-2.4;62.5;100810;;;;
2022/03/22 03:23:34;;;;;;;24.7;39.7;;;;;;;-2.5;62.3;100810;;;;
2022/03/22 03:33:34;;;;;;;24.7;39.7;;;;;;;-2.6;63.5;100820;;;;
2022/03/22 03:54:34;;;;;;;22.6;37.6;;;;;;;-2.8;63.9;100820;;;;
2022/03/22 04:05:34;;;;;;;22.6;37.6;;;;;;;-2.8;64.1;100820;;;;
2022/03/22 04:16:34;;;;;;;26.3;45.4;;;;;;;-2.7;64.9;100830;;;;
2022/03/22 04:37:34;;;;;;;26.3;45.4;;;;;;;-2.8;64.1;100840;;;;
2022/03/22 04:48:34;;;;;;;25;36.6;;;;;;;-2.9;65.3;100840;;;;
2022/03/22 04:59:34;;;;;;;25;36.6;;;;;;;-2.8;64.7;100850;;;;
2022/03/22 05:09:34;;;;;;;26.6;40.1;;;;;;;-2.8;64.9;100850;;;;
2022/03/22 05:20:34;;;;;;;26.6;40.1;;;;;;;-2.7;64.5;100850;;;;
2022/03/22 05:30:34;;;;;;;26.6;40.1;;;;;;;-2.4;64.7;100860;;;;
2022/03/22 05:40:34;;;;;;;28.1;46.3;;;;;;;-2.1;65.3;100850;;;;
2022/03/22 05:51:34;;;;;;;28.1;46.3;;;;;;;-1.8;65.1;100850;;;;
2022/03/22 06:01:34;;;;;;;28.1;46.3;;;;;;;-1.3;64.6;100860;;;;
2022/03/22 06:11:35;;;;;;;35.2;48.9;;;;;;;-0.7;63.6;100870;;;;
2022/03/22 06:22:34;;;;;;;35.2;48.9;;;;;;;-0.1;62.6;100880;;;;
2022/03/22 06:32:34;;;;;;;35.2;48.9;;;;;;;0.6;62.1;100890;;;;
2022/03/22 06:43:34;;;;;;;48.2;75.6;;;;;;;1.4;59.9;100890;;;;
2022/03/22 06:54:34;;;;;;;48.2;75.6;;;;;;;2.2;57.1;100890;;;;
2022/03/22 07:04:34;;;;;;;48.2;75.6;;;;;;;2.7;55.6;100890;;;;
2022/03/22 07:15:35;;;;;;;59.9;76.6;;;;;;;3.5;54.6;100890;;;;
2022/03/22 07:25:34;;;;;;;59.9;76.6;;;;;;;4;52.9;100890;;;;
2022/03/22 07:35:34;;;;;;;59.9;76.6;;;;;;;4.8;51.3;100900;;;;
2022/03/22 07:46:34;;;;;;;54.7;66.4;;;;;;;5.6;49;100900;;;;
2022/03/22 07:56:34;;;;;;;54.7;66.4;;;;;;;6.2;46.6;100900;;;;
2022/03/22 08:07:34;;;;;;;54.7;66.4;;;;;;;6.9;44.5;100900;;;;
2022/03/22 08:18:34;;;;;;;44.3;53.7;;;;;;;7.6;44.3;100890;;;;
2022/03/22 08:29:35;;;;;;;44.3;53.7;;;;;;;8.1;42.2;100890;;;;
2022/03/22 08:39:34;;;;;;;41.8;51.3;;;;;;;8.6;42;100890;;;;
2022/03/22 08:49:34;;;;;;;41.8;51.3;;;;;;;8.9;40.3;100890;;;;
2022/03/22 09:00:34;;;;;;;41.8;51.3;;;;;;;9.4;39.3;100870;;;;
2022/03/22 09:11:34;;;;;;;35.3;41.8;;;;;;;10.1;39.4;100860;;;;
2022/03/22 09:22:34;;;;;;;35.3;41.8;;;;;;;10.5;38.1;100850;;;;
2022/03/22 09:33:34;;;;;;;35.3;41.8;;;;;;;11;37.1;100850;;;;
2022/03/22 09:43:34;;;;;;;29.5;37.5;;;;;;;11.2;35.5;100840;;;;
2022/03/22 09:53:34;;;;;;;29.5;37.5;;;;;;;11.4;36.2;100830;;;;
2022/03/22 10:04:35;;;;;;;29.5;37.5;;;;;;;11.5;35.8;100820;;;;
2022/03/22 10:14:34;;;;;;;24.7;31.5;;;;;;;11.9;35.4;100810;;;;
2022/03/22 10:24:34;;;;;;;24.7;31.5;;;;;;;12.5;35.5;100810;;;;
2022/03/22 10:35:34;;;;;;;24.7;31.5;;;;;;;12.7;34.6;100810;;;;
2022/03/22 10:46:34;;;;;;;50.6;66.1;;;;;;;13.1;34.3;100800;;;;
2022/03/22 10:57:37;;;;;;;50.6;66.1;;;;;;;13.2;34.4;100800;;;;
2022/03/22 11:08:34;;;;;;;28.8;35.2;;;;;;;13.4;33.7;100790;;;;
2022/03/22 11:18:34;;;;;;;28.8;35.2;;;;;;;13.7;33.9;100770;;;;
2022/03/22 11:28:34;;;;;;;28.8;35.2;;;;;;;13.8;33.7;100760;;;;
2022/03/22 11:49:34;;;;;;;25.3;33.1;;;;;;;14.3;32.7;100730;;;;
2022/03/22 12:00:34;;;;;;;25.3;33.1;;;;;;;14.5;33.2;100720;;;;
2022/03/22 12:10:34;;;;;;;22.5;26.7;;;;;;;14.9;32.5;100710;;;;
2022/03/22 12:20:34;;;;;;;22.5;26.7;;;;;;;15.1;32.3;100690;;;;
2022/03/22 12:30:34;;;;;;;22.5;26.7;;;;;;;15.4;32.2;100680;;;;
2022/03/22 12:40:34;;;;;;;19.6;24.6;;;;;;;15.6;31.8;100660;;;;
2022/03/22 12:51:34;;;;;;;19.6;24.6;;;;;;;15.8;31.6;100650;;;;
2022/03/22 13:01:34;;;;;;;19.6;24.6;;;;;;;16.1;31.1;100640;;;;
2022/03/22 13:12:34;;;;;;;16.9;23.6;;;;;;;16.2;31.2;100630;;;;
2022/03/22 13:22:34;;;;;;;16.9;23.6;;;;;;;16.5;30.4;100620;;;;
2022/03/22 13:32:34;;;;;;;16.9;23.6;;;;;;;16.5;29.2;100610;;;;
2022/03/22 13:42:34;;;;;;;14.1;20.7;;;;;;;16.6;29.1;100600;;;;
2022/03/22 13:53:34;;;;;;;14.1;20.7;;;;;;;16.9;29.1;100600;;;;
2022/03/22 14:03:34;;;;;;;14.1;20.7;;;;;;;17.1;29;100590;;;;
2022/03/22 14:13:34;;;;;;;10.3;17.2;;;;;;;17.2;29;100580;;;;
2022/03/22 14:24:34;;;;;;;10.3;17.2;;;;;;;17.3;28;100570;;;;
2022/03/22 14:35:52;;;;;;;10.3;17.2;;;;;;;17.3;28.2;100560;;;;
2022/03/22 14:46:34;;;;;;;9;13.5;;;;;;;17.5;27.1;100550;;;;
2022/03/22 15:07:34;;;;;;;8.3;14.1;;;;;;;17.5;27.2;100530;;;;
2022/03/22 15:17:34;;;;;;;8.3;14.1;;;;;;;17.4;27.5;100520;;;;
2022/03/22 15:28:35;;;;;;;8.3;14.1;;;;;;;17.9;26.4;100520;;;;
2022/03/22 15:38:34;;;;;;;10.5;16.5;;;;;;;19.9;24.9;100510;;;;
2022/03/22 15:49:34;;;;;;;10.5;16.5;;;;;;;20.3;24.3;100510;;;;
2022/03/22 15:59:34;;;;;;;10.5;16.5;;;;;;;21.4;24.1;100510;;;;
2022/03/22 16:09:34;;;;;;;12.3;20.4;;;;;;;21.2;23.8;100510;;;;
2022/03/22 16:20:34;;;;;;;12.3;20.4;;;;;;;20.5;24.6;100500;;;;
2022/03/22 16:31:34;;;;;;;12.3;20.4;;;;;;;17.9;26.7;100500;;;;
2022/03/22 16:41:34;;;;;;;20.7;28.2;;;;;;;17.3;27.7;100500;;;;
2022/03/22 16:52:37;;;;;;;20.7;28.2;;;;;;;15.6;29.7;100500;;;;
2022/03/22 17:02:34;;;;;;;20.7;28.2;;;;;;;14.2;31.4;100510;;;;
2022/03/22 17:12:35;;;;;;;55.9;75.9;;;;;;;13.1;32.9;100520;;;;
2022/03/22 17:23:34;;;;;;;55.9;75.9;;;;;;;12.2;34.6;100520;;;;
2022/03/22 17:33:34;;;;;;;55.9;75.9;;;;;;;11.4;36.8;100530;;;;
2022/03/22 17:43:34;;;;;;;37.2;47.3;;;;;;;10.8;37.1;100520;;;;
2022/03/22 17:54:34;;;;;;;37.2;47.3;;;;;;;10.3;39.3;100520;;;;
2022/03/22 18:05:34;;;;;;;37.2;47.3;;;;;;;9.8;40.1;100530;;;;
2022/03/22 18:15:34;;;;;;;55.5;71.8;;;;;;;9.4;41.7;100530;;;;
2022/03/22 18:25:34;;;;;;;55.5;71.8;;;;;;;9;42;100530;;;;
2022/03/22 18:36:36;;;;;;;55.5;71.8;;;;;;;8.4;43.7;100530;;;;
2022/03/22 18:46:34;;;;;;;51.2;72.2;;;;;;;7.9;44.7;100540;;;;
2022/03/22 18:56:34;;;;;;;51.2;72.2;;;;;;;7.5;45.7;100540;;;;
2022/03/22 19:07:34;;;;;;;36.2;43.9;;;;;;;7.1;46.1;100540;;;;
2022/03/22 19:17:52;;;;;;;36.2;43.9;;;;;;;6.7;47.3;100540;;;;
2022/03/22 19:27:34;;;;;;;36.2;43.9;;;;;;;6.3;49.3;100540;;;;
2022/03/22 19:37:34;;;;;;;68.3;88.3;;;;;;;5.8;49.9;100540;;;;
2022/03/22 19:47:34;;;;;;;68.3;88.3;;;;;;;5.6;50.6;100540;;;;
2022/03/22 19:58:34;;;;;;;68.3;88.3;;;;;;;5.5;51.4;100540;;;;
2022/03/22 20:08:34;;;;;;;52.8;66.7;;;;;;;5.2;52.2;100550;;;;
2022/03/22 20:19:36;;;;;;;52.8;66.7;;;;;;;5;52;100540;;;;
2022/03/22 20:30:34;;;;;;;52.8;66.7;;;;;;;4.8;52.6;100540;;;;
2022/03/22 20:41:34;;;;;;;48.1;59.3;;;;;;;4.7;52.9;100540;;;;
2022/03/22 20:51:34;;;;;;;48.1;59.3;;;;;;;4.7;54.4;100530;;;;
2022/03/22 21:02:34;;;;;;;48.1;59.3;;;;;;;4.6;54;100520;;;;
2022/03/22 21:12:34;;;;;;;48.1;60.9;;;;;;;4.3;54.1;100520;;;;
2022/03/22 21:22:34;;;;;;;48.1;60.9;;;;;;;4;55.2;100520;;;;
2022/03/22 21:32:34;;;;;;;48.1;60.9;;;;;;;3.6;56.7;100510;;;;
2022/03/22 21:42:36;;;;;;;49.3;57.9;;;;;;;3.4;57;100500;;;;
2022/03/22 21:52:35;;;;;;;49.3;57.9;;;;;;;3.2;57.7;100490;;;;
2022/03/22 22:03:35;;;;;;;49.3;57.9;;;;;;;2.9;58;100490;;;;
2022/03/22 22:14:34;;;;;;;53.2;73.4;;;;;;;2.3;60;100480;;;;
2022/03/22 22:24:34;;;;;;;53.2;73.4;;;;;;;1.9;61.1;100480;;;;
2022/03/22 22:34:34;;;;;;;53.2;73.4;;;;;;;1.7;62.3;100470;;;;
2022/03/22 22:45:34;;;;;;;82.9;107.7;;;;;;;1.4;62.7;100470;;;;
2022/03/22 22:55:34;;;;;;;82.9;107.7;;;;;;;1.6;63.4;100460;;;;
2022/03/22 23:05:34;;;;;;;82.9;107.7;;;;;;;1.6;64.1;100460;;;;
2022/03/22 23:16:34;;;;;;;53;69;;;;;;;1.5;65.4;100460;;;;
2022/03/22 23:26:34;;;;;;;53;69;;;;;;;1.5;65.7;100450;;;;
2022/03/22 23:36:34;;;;;;;46.3;65.2;;;;;;;1.1;64.6;100460;;;;
2022/03/22 23:47:34;;;;;;;46.3;65.2;;;;;;;0.8;66.2;100440;;;;
2022/03/22 23:58:34;;;;;;;46.3;65.2;;;;;;;1.2;68;100440;;;;
